Time;durP1;ratioP1;P1;durP2;ratioP2;P2;SDS_P1;SDS_P2;PMS_P1;PMS_P2;Temp;Humidity;BMP_temperature;BMP_pressure;BME280_temperature;BME280_humidity;BME280_pressure;Samples;Min_cycle;Max_cycle;Signal;HPM_P1;HPM_P2
2024/03/06 00:01:04;;;;;;;9.50;6.30;;;;;;;;;;4959656;28;20135;-77
2024/03/06 00:03:31;;;;;;;10.13;6.10;;;;;;;;;;4973924;28;20051;-77
2024/03/06 00:05:57;;;;;;;9.85;6.38;;;;;;;;;;4940811;29;20478;-77
2024/03/06 00:08:24;;;;;;;9.50;6.07;;;;;;;;;;4941048;29;20417;-77
2024/03/06 00:10:50;;;;;;;10.02;6.10;;;;;;;;;;4961426;29;20083;-76
2024/03/06 00:13:17;;;;;;;11.00;6.47;;;;;;;;;;4942161;29;20054;-76
2024/03/06 00:15:45;;;;;;;7.75;5.80;;;;;;;;;;4934460;29;20099;-77
2024/03/06 00:18:11;;;;;;;9.45;6.03;;;;;;;;;;4933419;29;20127;-76
2024/03/06 00:20:38;;;;;;;10.20;5.93;;;;;;;;;;4947011;28;20054;-77
2024/03/06 00:23:05;;;;;;;10.23;6.47;;;;;;;;;;4932790;29;20573;-75
2024/03/06 00:25:32;;;;;;;8.57;5.75;;;;;;;;;;4932765;29;20508;-76
2024/03/06 00:27:58;;;;;;;7.22;5.20;;;;;;;;;;4945593;29;20118;-77
2024/03/06 00:30:25;;;;;;;8.43;5.78;;;;;;;;;;4952048;28;20051;-76
2024/03/06 00:32:52;;;;;;;9.45;5.93;;;;;;;;;;4935388;29;20142;-78
2024/03/06 00:35:19;;;;;;;8.02;5.38;;;;;;;;;;4954358;29;20087;-75
2024/03/06 00:37:46;;;;;;;7.72;5.30;;;;;;;;;;4952363;28;20058;-76
2024/03/06 00:40:12;;;;;;;7.18;4.90;;;;;;;;;;4968321;28;20470;-76
2024/03/06 00:42:41;;;;;;;9.63;5.47;;;;;;;;;;4939654;29;20055;-77
2024/03/06 00:45:07;;;;;;;7.10;5.32;;;;;;;;;;4943795;29;20079;-78
2024/03/06 00:47:34;;;;;;;6.95;4.60;;;;;;;;;;4943111;29;20075;-79
2024/03/06 00:50:01;;;;;;;6.57;4.93;;;;;;;;;;4961538;28;20055;-77
2024/03/06 00:52:28;;;;;;;11.98;5.60;;;;;;;;;;4973297;28;20086;-77
2024/03/06 00:54:56;;;;;;;6.65;4.82;;;;;;;;;;4957178;28;20047;-79
2024/03/06 00:57:22;;;;;;;6.07;4.85;;;;;;;;;;4946561;29;20138;-78
2024/03/06 00:59:49;;;;;;;6.28;4.40;;;;;;;;;;4959615;28;20055;-78
2024/03/06 01:02:15;;;;;;;8.75;5.15;;;;;;;;;;4959952;28;20138;-77
2024/03/06 01:04:42;;;;;;;7.32;5.32;;;;;;;;;;4956855;28;20134;-77
2024/03/06 01:07:09;;;;;;;7.60;5.30;;;;;;;;;;4933925;29;20090;-77
2024/03/06 01:09:36;;;;;;;8.75;4.97;;;;;;;;;;4947572;28;20086;-77
2024/03/06 01:12:03;;;;;;;8.80;5.05;;;;;;;;;;4955508;28;20079;-77
2024/03/06 01:14:30;;;;;;;7.72;4.82;;;;;;;;;;4934359;29;20589;-76
2024/03/06 01:16:57;;;;;;;8.98;4.68;;;;;;;;;;4969083;28;20489;-77
2024/03/06 01:19:24;;;;;;;7.50;5.25;;;;;;;;;;4955267;28;20540;-77
2024/03/06 01:21:50;;;;;;;7.65;4.80;;;;;;;;;;4937024;29;20605;-77
2024/03/06 01:24:17;;;;;;;5.88;4.35;;;;;;;;;;4956780;29;20055;-77
2024/03/06 01:26:44;;;;;;;6.88;5.03;;;;;;;;;;4939832;29;20047;-77
2024/03/06 01:29:11;;;;;;;9.40;5.10;;;;;;;;;;4955764;29;20062;-77
2024/03/06 01:31:38;;;;;;;7.85;5.10;;;;;;;;;;4955356;28;20047;-77
2024/03/06 01:34:04;;;;;;;8.02;5.05;;;;;;;;;;4957139;29;20051;-77
2024/03/06 01:36:31;;;;;;;7.93;4.85;;;;;;;;;;4953278;29;20071;-77
2024/03/06 01:38:57;;;;;;;6.57;4.82;;;;;;;;;;4953330;28;20110;-77
2024/03/06 01:41:24;;;;;;;9.90;5.40;;;;;;;;;;4962271;28;20082;-76
2024/03/06 01:43:51;;;;;;;6.88;4.85;;;;;;;;;;4943759;29;20060;-77
2024/03/06 01:46:18;;;;;;;10.02;4.85;;;;;;;;;;4933779;29;20063;-76
2024/03/06 01:48:44;;;;;;;9.27;5.43;;;;;;;;;;4932494;29;20055;-78
2024/03/06 01:51:11;;;;;;;7.68;5.60;;;;;;;;;;4941001;29;20086;-77
2024/03/06 01:53:37;;;;;;;8.50;5.97;;;;;;;;;;4935215;29;20055;-77
2024/03/06 01:56:05;;;;;;;8.00;5.53;;;;;;;;;;4937842;29;20126;-76
2024/03/06 01:58:33;;;;;;;7.55;5.47;;;;;;;;;;4937197;29;20128;-77
2024/03/06 02:01:00;;;;;;;10.13;6.63;;;;;;;;;;4954735;28;20055;-77
2024/03/06 02:03:27;;;;;;;8.90;6.07;;;;;;;;;;4939701;29;20055;-77
2024/03/06 02:05:54;;;;;;;8.13;5.63;;;;;;;;;;4955280;28;20559;-77
2024/03/06 02:08:20;;;;;;;8.75;6.45;;;;;;;;;;4935911;29;20085;-75
2024/03/06 02:10:47;;;;;;;7.65;5.55;;;;;;;;;;4957139;28;20082;-77
2024/03/06 02:13:14;;;;;;;10.73;6.32;;;;;;;;;;4956798;29;20058;-78
2024/03/06 02:15:42;;;;;;;9.07;7.05;;;;;;;;;;4964748;28;20065;-77
2024/03/06 02:18:09;;;;;;;8.80;6.57;;;;;;;;;;4955347;29;20138;-76
2024/03/06 02:20:42;;;;;;;9.20;7.00;;;;;;;;;;4974698;28;20062;-77
2024/03/06 02:23:09;;;;;;;9.98;6.50;;;;;;;;;;4941374;29;20059;-76
2024/03/06 02:25:35;;;;;;;9.00;6.43;;;;;;;;;;4934464;29;20063;-77
2024/03/06 02:28:02;;;;;;;9.80;6.22;;;;;;;;;;4954188;28;20126;-77
2024/03/06 02:30:35;;;;;;;9.38;6.75;;;;;;;;;;4964224;28;20106;-77
2024/03/06 02:33:06;;;;;;;8.27;6.38;;;;;;;;;;4960726;28;20055;-77
2024/03/06 02:35:33;;;;;;;6.40;5.80;;;;;;;;;;4954707;28;20086;-77
2024/03/06 02:38:00;;;;;;;8.25;6.53;;;;;;;;;;4941433;29;20114;-78
2024/03/06 02:40:27;;;;;;;7.93;5.90;;;;;;;;;;4959758;29;20051;-77
2024/03/06 02:42:54;;;;;;;7.95;5.45;;;;;;;;;;4939466;29;20059;-77
2024/03/06 02:45:20;;;;;;;8.07;5.30;;;;;;;;;;4938848;29;20047;-76
2024/03/06 02:47:47;;;;;;;8.00;5.18;;;;;;;;;;4953796;28;20192;-77
2024/03/06 02:50:14;;;;;;;6.90;4.85;;;;;;;;;;4938236;29;20494;-76
2024/03/06 02:52:40;;;;;;;8.10;5.25;;;;;;;;;;4937450;29;20592;-77
2024/03/06 02:55:07;;;;;;;8.60;5.43;;;;;;;;;;4954647;29;20058;-76
2024/03/06 02:57:34;;;;;;;6.95;4.85;;;;;;;;;;4957367;29;20055;-77
2024/03/06 03:00:00;;;;;;;6.38;4.40;;;;;;;;;;4959472;29;20083;-77
2024/03/06 03:02:27;;;;;;;7.65;4.65;;;;;;;;;;4961545;29;20051;-78
2024/03/06 03:04:54;;;;;;;6.43;4.90;;;;;;;;;;4959246;29;20126;-77
2024/03/06 03:07:20;;;;;;;5.32;4.38;;;;;;;;;;4960007;29;20055;-78
2024/03/06 03:09:47;;;;;;;7.97;4.82;;;;;;;;;;4968399;28;20055;-77
2024/03/06 03:12:14;;;;;;;5.57;4.70;;;;;;;;;;4965098;28;20047;-78
2024/03/06 03:14:41;;;;;;;7.72;5.25;;;;;;;;;;4980105;28;20051;-77
2024/03/06 03:17:08;;;;;;;6.15;4.45;;;;;;;;;;4966048;29;20055;-77
2024/03/06 03:19:34;;;;;;;10.25;5.53;;;;;;;;;;4966358;29;20051;-78
2024/03/06 03:22:04;;;;;;;8.93;4.97;;;;;;;;;;4966247;29;20069;-79
2024/03/06 03:24:30;;;;;;;6.63;5.18;;;;;;;;;;4966890;29;20114;-77
2024/03/06 03:26:59;;;;;;;11.25;5.10;;;;;;;;;;4965630;29;20110;-78
2024/03/06 03:29:29;;;;;;;4.82;4.32;;;;;;;;;;4934837;29;20046;-76
2024/03/06 03:31:57;;;;;;;8.63;5.18;;;;;;;;;;4937435;29;20051;-77
2024/03/06 03:34:24;;;;;;;6.50;4.65;;;;;;;;;;4962602;28;20059;-76
2024/03/06 03:36:50;;;;;;;8.65;5.40;;;;;;;;;;4954772;29;20059;-78
2024/03/06 03:39:20;;;;;;;7.00;4.65;;;;;;;;;;4959259;29;20532;-77
2024/03/06 03:41:47;;;;;;;8.38;4.32;;;;;;;;;;4938442;29;20474;-77
2024/03/06 03:44:14;;;;;;;6.65;5.15;;;;;;;;;;4939649;29;20083;-76
2024/03/06 03:46:41;;;;;;;8.60;5.20;;;;;;;;;;4954567;29;20125;-78
2024/03/06 03:49:08;;;;;;;7.18;4.30;;;;;;;;;;4938698;29;20425;-77
2024/03/06 03:51:35;;;;;;;6.93;4.65;;;;;;;;;;4954610;29;20130;-77
2024/03/06 03:54:02;;;;;;;7.57;4.43;;;;;;;;;;4953128;29;20126;-77
2024/03/06 03:56:29;;;;;;;8.55;4.20;;;;;;;;;;4939976;29;20043;-78
2024/03/06 03:58:57;;;;;;;8.55;4.30;;;;;;;;;;4975608;28;20055;-77
2024/03/06 04:01:24;;;;;;;7.00;4.18;;;;;;;;;;4963659;29;20047;-79
2024/03/06 04:03:51;;;;;;;6.05;4.30;;;;;;;;;;4960301;28;20055;-77
2024/03/06 04:06:18;;;;;;;6.72;3.67;;;;;;;;;;4962036;29;20055;-78
2024/03/06 04:08:45;;;;;;;8.55;4.53;;;;;;;;;;4965085;29;20059;-78
2024/03/06 04:11:12;;;;;;;6.53;4.15;;;;;;;;;;4967588;29;20047;-78
2024/03/06 04:13:38;;;;;;;8.02;4.75;;;;;;;;;;4967817;29;20130;-77
2024/03/06 04:16:05;;;;;;;8.90;4.43;;;;;;;;;;4967548;29;20058;-76
2024/03/06 04:18:35;;;;;;;7.03;4.60;;;;;;;;;;4953919;29;20062;-79
2024/03/06 04:21:04;;;;;;;6.57;3.80;;;;;;;;;;4955457;29;20055;-78
2024/03/06 04:23:30;;;;;;;5.55;4.55;;;;;;;;;;4951848;29;20051;-78
2024/03/06 04:25:57;;;;;;;6.70;5.05;;;;;;;;;;4984836;28;20054;-77
2024/03/06 04:28:24;;;;;;;6.53;5.28;;;;;;;;;;4968784;29;20107;-78
2024/03/06 04:30:50;;;;;;;6.85;4.70;;;;;;;;;;4967422;29;20106;-78
2024/03/06 04:33:17;;;;;;;6.68;5.28;;;;;;;;;;4965100;29;20051;-78
2024/03/06 04:35:43;;;;;;;6.20;5.25;;;;;;;;;;4951513;29;20079;-78
2024/03/06 04:38:10;;;;;;;7.18;5.55;;;;;;;;;;4951796;29;20307;-78
2024/03/06 04:40:37;;;;;;;7.32;5.00;;;;;;;;;;4967555;28;20067;-77
2024/03/06 04:43:03;;;;;;;9.50;4.65;;;;;;;;;;4968365;29;20059;-77
2024/03/06 04:45:30;;;;;;;6.63;5.10;;;;;;;;;;4967791;29;20066;-78
2024/03/06 04:47:57;;;;;;;7.32;4.72;;;;;;;;;;4967155;29;20059;-78
2024/03/06 04:50:23;;;;;;;7.32;5.00;;;;;;;;;;4967158;29;20119;-78
2024/03/06 04:52:50;;;;;;;9.63;5.00;;;;;;;;;;4966624;29;20044;-78
2024/03/06 04:55:22;;;;;;;5.38;4.28;;;;;;;;;;4947549;29;20516;-78
2024/03/06 04:57:49;;;;;;;7.25;4.03;;;;;;;;;;4949801;29;20573;-79
2024/03/06 05:00:18;;;;;;;7.82;4.53;;;;;;;;;;4950985;29;20055;-79
2024/03/06 05:02:44;;;;;;;6.03;4.47;;;;;;;;;;4951339;29;20047;-78
2024/03/06 05:05:29;;;;;;;9.55;4.85;;;;;;;;;;4967694;28;20038;-78
2024/03/06 05:08:13;;;;;;;8.10;4.97;;;;;;;;;;4954461;29;20054;-77
2024/03/06 05:10:59;;;;;;;9.75;4.90;;;;;;;;;;4953159;29;20569;-78
2024/03/06 05:13:43;;;;;;;8.20;4.85;;;;;;;;;;4968956;29;20046;-78
2024/03/06 05:16:27;;;;;;;7.78;4.68;;;;;;;;;;4969710;29;20067;-78
2024/03/06 05:19:11;;;;;;;5.50;4.40;;;;;;;;;;4955490;29;20082;-78
2024/03/06 05:21:55;;;;;;;7.55;5.25;;;;;;;;;;4966296;29;20097;-79
2024/03/06 05:24:40;;;;;;;9.93;4.57;;;;;;;;;;4968732;28;20042;-79
2024/03/06 05:27:24;;;;;;;6.25;4.82;;;;;;;;;;4950215;28;20086;-79
2024/03/06 05:30:09;;;;;;;6.50;4.78;;;;;;;;;;4947334;29;20124;-78
2024/03/06 05:32:52;;;;;;;6.72;5.32;;;;;;;;;;4972346;28;20051;-79
2024/03/06 05:35:36;;;;;;;7.43;4.72;;;;;;;;;;4964565;28;20039;-78
2024/03/06 05:38:22;;;;;;;6.28;5.13;;;;;;;;;;4973927;28;20045;-80
2024/03/06 05:41:05;;;;;;;7.13;5.18;;;;;;;;;;4958344;29;20042;-79
2024/03/06 05:43:49;;;;;;;7.63;5.32;;;;;;;;;;4971690;29;20121;-81
2024/03/06 05:46:33;;;;;;;7.93;5.10;;;;;;;;;;4952823;29;20166;-79
2024/03/06 05:49:19;;;;;;;12.00;5.68;;;;;;;;;;4948186;29;20050;-80
2024/03/06 05:52:03;;;;;;;7.13;5.32;;;;;;;;;;4949182;28;20046;-79
2024/03/06 05:54:46;;;;;;;6.05;4.85;;;;;;;;;;4939337;29;20047;-80
2024/03/06 05:57:30;;;;;;;6.60;4.80;;;;;;;;;;4956490;28;20545;-79
2024/03/06 06:00:17;;;;;;;9.75;4.60;;;;;;;;;;4942912;29;20046;-78
2024/03/06 06:02:45;;;;;;;7.63;5.22;;;;;;;;;;4940562;29;20086;-79
2024/03/06 06:05:12;;;;;;;8.45;4.57;;;;;;;;;;4937360;29;20059;-82
2024/03/06 06:07:49;;;;;;;9.38;4.85;;;;;;;;;;4938509;29;20056;-82
2024/03/06 06:10:16;;;;;;;8.18;5.82;;;;;;;;;;4957825;29;20110;-79
2024/03/06 06:12:47;;;;;;;9.50;5.60;;;;;;;;;;4961770;28;20062;-78
2024/03/06 06:15:16;;;;;;;10.80;6.20;;;;;;;;;;4955362;29;20059;-79
2024/03/06 06:17:45;;;;;;;9.88;5.57;;;;;;;;;;4954003;29;20062;-78
2024/03/06 06:20:16;;;;;;;9.00;5.90;;;;;;;;;;4963236;28;20520;-77
2024/03/06 06:22:44;;;;;;;9.60;6.20;;;;;;;;;;4981330;28;20077;-77
2024/03/06 06:25:11;;;;;;;9.85;6.35;;;;;;;;;;4962728;28;20094;-77
2024/03/06 06:27:38;;;;;;;10.55;6.53;;;;;;;;;;4965464;29;20047;-80
2024/03/06 06:30:06;;;;;;;11.38;7.07;;;;;;;;;;4984153;28;20061;-79
2024/03/06 06:32:34;;;;;;;13.38;7.82;;;;;;;;;;4980416;28;20054;-79
2024/03/06 06:35:01;;;;;;;12.07;7.78;;;;;;;;;;4986927;28;20062;-79
2024/03/06 06:37:29;;;;;;;8.82;6.25;;;;;;;;;;4950790;29;20051;-79
2024/03/06 06:39:56;;;;;;;9.73;6.30;;;;;;;;;;4981901;28;20079;-80
2024/03/06 06:42:24;;;;;;;10.48;6.18;;;;;;;;;;4968621;29;20082;-80
2024/03/06 06:44:51;;;;;;;10.00;6.03;;;;;;;;;;4984117;28;20059;-81
2024/03/06 06:47:17;;;;;;;11.50;6.50;;;;;;;;;;4984131;28;20047;-82
2024/03/06 06:49:44;;;;;;;9.60;6.57;;;;;;;;;;4945067;29;20051;-82
2024/03/06 06:52:11;;;;;;;10.90;6.70;;;;;;;;;;4958433;29;20055;-83
2024/03/06 06:54:38;;;;;;;10.27;6.68;;;;;;;;;;4974150;28;20043;-84
2024/03/06 06:57:05;;;;;;;10.85;6.40;;;;;;;;;;4942350;29;20048;-82
2024/03/06 06:59:31;;;;;;;11.60;6.55;;;;;;;;;;4958522;28;20466;-83
2024/03/06 07:01:58;;;;;;;8.88;6.28;;;;;;;;;;4966717;28;20055;-86
2024/03/06 07:04:25;;;;;;;10.25;6.65;;;;;;;;;;4966081;28;20047;-82
2024/03/06 07:06:51;;;;;;;9.02;6.47;;;;;;;;;;4964852;29;20086;-81
2024/03/06 07:09:19;;;;;;;9.90;6.40;;;;;;;;;;4982271;28;20075;-81
2024/03/06 07:11:46;;;;;;;7.75;5.40;;;;;;;;;;4967842;28;20055;-78
2024/03/06 07:14:12;;;;;;;10.95;5.50;;;;;;;;;;4984110;28;20043;-82
2024/03/06 07:16:43;;;;;;;6.53;5.68;;;;;;;;;;4949672;29;20638;-81
2024/03/06 07:19:10;;;;;;;8.25;5.43;;;;;;;;;;4961835;29;20069;-80
2024/03/06 07:21:37;;;;;;;10.82;5.85;;;;;;;;;;4950582;29;20070;-80
2024/03/06 07:24:04;;;;;;;8.77;5.38;;;;;;;;;;4945235;29;20051;-80
2024/03/06 07:26:35;;;;;;;7.95;5.03;;;;;;;;;;4947947;29;20065;-80
2024/03/06 07:29:02;;;;;;;7.28;5.47;;;;;;;;;;4972604;28;20055;-80
2024/03/06 07:31:29;;;;;;;7.43;5.13;;;;;;;;;;4950036;29;20054;-80
2024/03/06 07:33:56;;;;;;;6.95;5.28;;;;;;;;;;4951307;29;20094;-79
2024/03/06 07:36:22;;;;;;;7.40;5.80;;;;;;;;;;4965649;29;20061;-80
2024/03/06 07:38:49;;;;;;;6.53;5.15;;;;;;;;;;4962848;28;20090;-80
2024/03/06 07:41:16;;;;;;;11.30;5.32;;;;;;;;;;4961913;29;20144;-80
2024/03/06 07:43:43;;;;;;;7.60;4.72;;;;;;;;;;4963347;29;20086;-80
2024/03/06 07:46:10;;;;;;;8.95;4.80;;;;;;;;;;4963142;29;20577;-79
2024/03/06 07:48:38;;;;;;;7.43;5.03;;;;;;;;;;4959547;29;20043;-80
2024/03/06 07:51:05;;;;;;;8.30;5.68;;;;;;;;;;4952574;29;20051;-80
2024/03/06 07:53:32;;;;;;;7.00;4.93;;;;;;;;;;4945225;29;20047;-83
2024/03/06 07:55:58;;;;;;;10.82;6.22;;;;;;;;;;4947543;29;20047;-85
2024/03/06 07:58:25;;;;;;;11.10;6.93;;;;;;;;;;4946370;29;20088;-82
2024/03/06 08:00:55;;;;;;;13.82;7.50;;;;;;;;;;4968085;29;20063;-79
2024/03/06 08:03:22;;;;;;;11.73;5.43;;;;;;;;;;4949445;29;20079;-79
2024/03/06 08:05:55;;;;;;;9.88;5.00;;;;;;;;;;4964234;29;20039;-81
2024/03/06 08:08:22;;;;;;;7.95;4.93;;;;;;;;;;4954598;29;20089;-78
2024/03/06 08:10:49;;;;;;;8.23;5.45;;;;;;;;;;4955118;29;20055;-81
2024/03/06 08:13:16;;;;;;;7.85;4.63;;;;;;;;;;4956899;29;20069;-79
2024/03/06 08:15:44;;;;;;;10.57;5.22;;;;;;;;;;4939719;29;20062;-78
2024/03/06 08:18:12;;;;;;;6.05;5.45;;;;;;;;;;4950558;29;20055;-79
2024/03/06 08:20:40;;;;;;;9.43;5.30;;;;;;;;;;4952224;29;20113;-80
2024/03/06 08:23:07;;;;;;;6.90;4.75;;;;;;;;;;4957455;29;20430;-81
2024/03/06 08:25:33;;;;;;;13.32;7.25;;;;;;;;;;4953415;28;20050;-80
2024/03/06 08:28:00;;;;;;;6.97;5.18;;;;;;;;;;4953980;29;20083;-80
2024/03/06 08:30:27;;;;;;;9.95;6.07;;;;;;;;;;4953489;28;20203;-80
2024/03/06 08:32:53;;;;;;;8.32;5.68;;;;;;;;;;4953972;29;20058;-83
2024/03/06 08:35:21;;;;;;;7.88;5.25;;;;;;;;;;4955287;29;20055;-77
2024/03/06 08:37:48;;;;;;;8.20;5.88;;;;;;;;;;4951814;29;20086;-78
2024/03/06 08:40:15;;;;;;;7.93;5.93;;;;;;;;;;4952489;28;20638;-78
2024/03/06 08:42:42;;;;;;;8.82;6.32;;;;;;;;;;4951456;28;20059;-77
2024/03/06 08:45:09;;;;;;;8.32;5.80;;;;;;;;;;4953870;29;20059;-76
2024/03/06 08:47:36;;;;;;;11.50;6.78;;;;;;;;;;4952806;28;20074;-77
2024/03/06 08:50:03;;;;;;;11.05;7.25;;;;;;;;;;4933744;29;20070;-77
2024/03/06 08:52:32;;;;;;;9.25;6.90;;;;;;;;;;4950074;28;20132;-77
2024/03/06 08:54:58;;;;;;;11.52;6.55;;;;;;;;;;4967033;28;20047;-77
2024/03/06 08:57:28;;;;;;;9.13;6.65;;;;;;;;;;4934923;28;20130;-77
2024/03/06 08:59:55;;;;;;;9.00;6.65;;;;;;;;;;4932661;29;20055;-77
2024/03/06 09:02:21;;;;;;;14.73;7.72;;;;;;;;;;4945768;28;20059;-83
2024/03/06 09:04:48;;;;;;;9.88;6.20;;;;;;;;;;4962887;28;20081;-77
2024/03/06 09:07:15;;;;;;;13.57;7.25;;;;;;;;;;4952655;28;20497;-77
2024/03/06 09:09:42;;;;;;;8.73;6.90;;;;;;;;;;4951350;28;20589;-78
2024/03/06 09:12:10;;;;;;;9.45;6.53;;;;;;;;;;4951509;28;20102;-78
2024/03/06 09:14:37;;;;;;;11.23;7.15;;;;;;;;;;4956968;28;20059;-86
2024/03/06 09:17:04;;;;;;;10.77;7.60;;;;;;;;;;4953736;28;20103;-84
2024/03/06 09:19:34;;;;;;;12.40;7.35;;;;;;;;;;4956418;28;20062;-82
2024/03/06 09:22:00;;;;;;;12.02;6.95;;;;;;;;;;4948811;29;20051;-82
2024/03/06 09:24:28;;;;;;;11.63;7.13;;;;;;;;;;4951729;28;20055;-80
2024/03/06 09:26:54;;;;;;;9.45;6.95;;;;;;;;;;4965181;28;20051;-85
2024/03/06 09:29:23;;;;;;;11.30;7.22;;;;;;;;;;4940702;28;20040;-85
2024/03/06 09:31:50;;;;;;;11.73;7.90;;;;;;;;;;4942949;29;20079;-84
2024/03/06 09:34:17;;;;;;;11.52;8.05;;;;;;;;;;4961508;28;20043;-82
2024/03/06 09:36:47;;;;;;;15.15;9.15;;;;;;;;;;4964729;28;20071;-82
2024/03/06 09:39:16;;;;;;;11.40;8.25;;;;;;;;;;4962870;28;20047;-84
2024/03/06 09:41:44;;;;;;;8.50;6.30;;;;;;;;;;4949119;29;20516;-84
2024/03/06 09:44:11;;;;;;;12.15;7.50;;;;;;;;;;4948903;28;20107;-84
2024/03/06 09:46:38;;;;;;;10.40;7.00;;;;;;;;;;4940801;29;20074;-84
2024/03/06 09:49:05;;;;;;;9.98;7.10;;;;;;;;;;4951114;29;20055;-84
2024/03/06 09:51:32;;;;;;;8.43;6.80;;;;;;;;;;4941018;28;20082;-84
2024/03/06 09:53:58;;;;;;;11.93;7.53;;;;;;;;;;4962413;28;20557;-84
2024/03/06 09:56:25;;;;;;;9.57;6.85;;;;;;;;;;4964348;28;20051;-83
2024/03/06 09:58:53;;;;;;;9.98;7.03;;;;;;;;;;4963358;28;20058;-84
2024/03/06 10:01:23;;;;;;;13.40;8.38;;;;;;;;;;4965464;28;20059;-84
2024/03/06 10:03:50;;;;;;;12.38;7.90;;;;;;;;;;4964880;28;20085;-85
2024/03/06 10:06:17;;;;;;;9.85;7.78;;;;;;;;;;4948908;28;20047;-85
2024/03/06 10:08:46;;;;;;;14.93;8.65;;;;;;;;;;4947921;29;20362;-84
2024/03/06 10:11:13;;;;;;;12.05;8.23;;;;;;;;;;4963096;28;20055;-85
2024/03/06 10:13:40;;;;;;;10.60;7.88;;;;;;;;;;4947921;29;20055;-84
2024/03/06 10:16:08;;;;;;;11.23;7.75;;;;;;;;;;4965124;28;20106;-84
2024/03/06 10:18:36;;;;;;;12.77;8.45;;;;;;;;;;4949005;28;20051;-84
2024/03/06 10:21:04;;;;;;;12.82;9.38;;;;;;;;;;4961276;28;20078;-85
2024/03/06 10:23:31;;;;;;;11.45;9.27;;;;;;;;;;4941132;28;20082;-84
2024/03/06 10:25:57;;;;;;;11.05;8.60;;;;;;;;;;4963125;28;20062;-83
2024/03/06 10:28:24;;;;;;;12.85;10.93;;;;;;;;;;4967840;28;20061;-86
2024/03/06 10:30:51;;;;;;;12.80;9.82;;;;;;;;;;4970609;28;20082;-84
2024/03/06 10:33:20;;;;;;;16.73;11.48;;;;;;;;;;4952096;28;20055;-84
2024/03/06 10:35:51;;;;;;;17.10;12.90;;;;;;;;;;4950620;29;20086;-84
2024/03/06 10:38:19;;;;;;;20.08;11.90;;;;;;;;;;4953237;28;20051;-84
2024/03/06 10:40:46;;;;;;;18.13;11.27;;;;;;;;;;4969137;28;20488;-83
2024/03/06 10:43:13;;;;;;;16.15;11.25;;;;;;;;;;4948953;29;20643;-84
2024/03/06 10:45:43;;;;;;;17.67;11.88;;;;;;;;;;4948979;28;20106;-84
2024/03/06 10:48:11;;;;;;;17.27;11.70;;;;;;;;;;4967813;28;20047;-85
2024/03/06 10:50:44;;;;;;;18.70;12.65;;;;;;;;;;4953986;28;20078;-85
2024/03/06 10:53:12;;;;;;;17.33;12.32;;;;;;;;;;4946367;29;20072;-85
2024/03/06 10:55:44;;;;;;;18.65;13.20;;;;;;;;;;4952537;28;20047;-85
2024/03/06 10:58:11;;;;;;;15.27;11.63;;;;;;;;;;4954010;29;20051;-85
2024/03/06 11:00:38;;;;;;;22.02;13.90;;;;;;;;;;4968308;28;20051;-85
2024/03/06 11:03:09;;;;;;;20.88;13.77;;;;;;;;;;4952934;28;20051;-84
2024/03/06 11:05:39;;;;;;;20.00;13.68;;;;;;;;;;4971467;28;20283;-85
2024/03/06 11:08:10;;;;;;;20.73;13.32;;;;;;;;;;4972112;28;20156;-85
2024/03/06 11:10:41;;;;;;;20.80;13.50;;;;;;;;;;4970021;28;20114;-86
2024/03/06 11:13:17;;;;;;;18.92;13.02;;;;;;;;;;4953364;28;20043;-85
2024/03/06 11:15:44;;;;;;;20.70;13.82;;;;;;;;;;4970512;28;20047;-86
2024/03/06 11:18:29;;;;;;;23.35;13.63;;;;;;;;;;4970315;28;20051;-86
2024/03/06 11:21:02;;;;;;;19.90;13.65;;;;;;;;;;4989103;28;20078;-85
2024/03/06 11:23:29;;;;;;;22.45;14.02;;;;;;;;;;4969587;28;20047;-84
2024/03/06 11:26:00;;;;;;;23.33;15.57;;;;;;;;;;4955448;29;20047;-84
2024/03/06 11:28:28;;;;;;;19.00;13.45;;;;;;;;;;4971455;28;20110;-83
2024/03/06 11:31:02;;;;;;;21.75;14.93;;;;;;;;;;4971381;28;20054;-83
2024/03/06 11:33:39;;;;;;;23.73;14.15;;;;;;;;;;4954827;28;20047;-84
2024/03/06 11:36:18;;;;;;;18.45;13.25;;;;;;;;;;4950693;28;20733;-83
2024/03/06 11:38:59;;;;;;;20.50;13.35;;;;;;;;;;4973052;28;20518;-83
2024/03/06 11:41:26;;;;;;;19.52;13.45;;;;;;;;;;4972351;28;20055;-83
2024/03/06 11:43:55;;;;;;;20.70;13.80;;;;;;;;;;4953285;28;20062;-82
2024/03/06 11:46:22;;;;;;;22.83;14.57;;;;;;;;;;4964694;28;20062;-80
2024/03/06 11:48:55;;;;;;;21.88;14.77;;;;;;;;;;4945194;28;20291;-80
2024/03/06 11:51:21;;;;;;;;;;;;;;;;;;4964899;28;20078;-82
2024/03/06 11:53:51;;;;;;;19.17;14.18;;;;;;;;;;4966854;28;19922;-79
2024/03/06 11:56:19;;;;;;;22.77;14.75;;;;;;;;;;4952636;28;20050;-80
2024/03/06 11:58:46;;;;;;;26.10;15.77;;;;;;;;;;4974022;28;20055;-80
2024/03/06 12:01:15;;;;;;;21.90;15.50;;;;;;;;;;4953150;28;20056;-81
2024/03/06 12:03:43;;;;;;;22.88;15.13;;;;;;;;;;4969267;28;20501;-80
2024/03/06 12:06:09;;;;;;;22.27;14.27;;;;;;;;;;4968239;28;20051;-79
2024/03/06 12:08:36;;;;;;;21.73;15.07;;;;;;;;;;4969745;28;20055;-80
2024/03/06 12:11:07;;;;;;;20.90;15.45;;;;;;;;;;4952230;28;20082;-80
2024/03/06 12:13:35;;;;;;;21.02;14.55;;;;;;;;;;4970197;28;20075;-80
2024/03/06 12:16:06;;;;;;;21.70;15.10;;;;;;;;;;4967920;28;20441;-78
2024/03/06 12:18:33;;;;;;;20.13;13.68;;;;;;;;;;4937421;28;20043;-84
2024/03/06 12:21:02;;;;;;;20.83;14.60;;;;;;;;;;4969842;28;20075;-81
2024/03/06 12:23:29;;;;;;;21.55;14.13;;;;;;;;;;4968912;28;20485;-82
2024/03/06 12:26:06;;;;;;;21.95;14.48;;;;;;;;;;4969559;28;20082;-81
2024/03/06 12:28:33;;;;;;;20.60;14.55;;;;;;;;;;4990129;28;20058;-81
2024/03/06 12:31:01;;;;;;;22.45;14.30;;;;;;;;;;4953888;29;20047;-81
2024/03/06 12:33:28;;;;;;;20.67;14.07;;;;;;;;;;4969954;28;20055;-81
2024/03/06 12:36:02;;;;;;;19.27;14.00;;;;;;;;;;4970752;28;20047;-81
2024/03/06 12:38:32;;;;;;;20.45;13.60;;;;;;;;;;4969943;28;20027;-82
2024/03/06 12:40:59;;;;;;;20.63;13.85;;;;;;;;;;4954704;28;20082;-80
2024/03/06 12:43:26;;;;;;;21.00;14.65;;;;;;;;;;4971151;28;20051;-81
2024/03/06 12:45:54;;;;;;;22.17;14.82;;;;;;;;;;4992461;28;20059;-83
2024/03/06 12:48:25;;;;;;;26.02;14.95;;;;;;;;;;4971859;28;20047;-82
2024/03/06 12:50:54;;;;;;;25.25;15.82;;;;;;;;;;4953199;28;20039;-82
2024/03/06 12:53:21;;;;;;;26.45;17.30;;;;;;;;;;4955018;28;20110;-82
2024/03/06 12:55:48;;;;;;;25.48;16.00;;;;;;;;;;4969499;28;20417;-82
2024/03/06 12:58:15;;;;;;;27.88;16.38;;;;;;;;;;4955327;28;20043;-82
2024/03/06 13:00:42;;;;;;;31.15;16.92;;;;;;;;;;4970462;28;20059;-82
2024/03/06 13:03:10;;;;;;;25.13;16.77;;;;;;;;;;4954485;28;20055;-83
2024/03/06 13:05:37;;;;;;;25.98;17.05;;;;;;;;;;4975309;28;20063;-83
2024/03/06 13:08:04;;;;;;;29.65;17.48;;;;;;;;;;4969714;28;20059;-82
2024/03/06 13:10:30;;;;;;;26.35;16.30;;;;;;;;;;4970519;28;20035;-83
2024/03/06 13:12:57;;;;;;;27.05;17.17;;;;;;;;;;4986680;28;20051;-84
2024/03/06 13:15:24;;;;;;;24.98;15.88;;;;;;;;;;4953503;29;20111;-83
2024/03/06 13:17:51;;;;;;;27.15;16.50;;;;;;;;;;4968549;28;20370;-82
2024/03/06 13:20:19;;;;;;;29.65;17.65;;;;;;;;;;4954299;29;20062;-82
2024/03/06 13:22:53;;;;;;;28.85;17.50;;;;;;;;;;4966170;28;20047;-83
2024/03/06 13:25:21;;;;;;;26.73;17.98;;;;;;;;;;4969598;28;20121;-83
2024/03/06 13:27:48;;;;;;;26.35;17.05;;;;;;;;;;4969156;28;20062;-83
2024/03/06 13:30:15;;;;;;;29.02;19.67;;;;;;;;;;4953811;28;20048;-84
2024/03/06 13:32:48;;;;;;;29.27;18.92;;;;;;;;;;4967685;28;20078;-82
2024/03/06 13:35:15;;;;;;;29.52;20.20;;;;;;;;;;4952240;28;20059;-83
2024/03/06 13:37:45;;;;;;;27.48;18.50;;;;;;;;;;4969374;28;20051;-82
2024/03/06 13:40:13;;;;;;;29.92;20.13;;;;;;;;;;4970208;28;20047;-83
2024/03/06 13:42:40;;;;;;;33.72;20.83;;;;;;;;;;4955065;28;20078;-83
2024/03/06 13:45:11;;;;;;;31.63;19.08;;;;;;;;;;4965389;28;20059;-83
2024/03/06 13:47:42;;;;;;;33.25;20.88;;;;;;;;;;4971505;28;20062;-82
2024/03/06 13:50:12;;;;;;;31.45;21.13;;;;;;;;;;4989958;28;20062;-83
2024/03/06 13:52:39;;;;;;;31.90;20.98;;;;;;;;;;4957766;28;20055;-83
2024/03/06 13:55:06;;;;;;;32.75;20.33;;;;;;;;;;4972916;28;20078;-83
2024/03/06 13:57:33;;;;;;;30.98;20.20;;;;;;;;;;4974482;28;20069;-83
2024/03/06 14:00:01;;;;;;;34.72;21.17;;;;;;;;;;4970300;28;20050;-83
2024/03/06 14:02:27;;;;;;;33.30;21.05;;;;;;;;;;4980664;28;20057;-83
2024/03/06 14:04:54;;;;;;;33.45;21.13;;;;;;;;;;4974783;28;20059;-84
2024/03/06 14:07:21;;;;;;;35.63;22.13;;;;;;;;;;4973291;28;20477;-83
2024/03/06 14:09:48;;;;;;;35.63;21.80;;;;;;;;;;4972401;28;20517;-83
2024/03/06 14:12:15;;;;;;;37.22;23.00;;;;;;;;;;4957212;29;20098;-83
2024/03/06 14:14:41;;;;;;;41.05;23.42;;;;;;;;;;4972745;28;20087;-81
2024/03/06 14:17:08;;;;;;;33.05;21.85;;;;;;;;;;4968344;28;20102;-81
2024/03/06 14:19:35;;;;;;;34.88;23.13;;;;;;;;;;4945099;28;20043;-83
2024/03/06 14:22:02;;;;;;;42.90;24.33;;;;;;;;;;4954995;29;20110;-83
2024/03/06 14:24:32;;;;;;;41.13;25.20;;;;;;;;;;4950267;28;20395;-82
2024/03/06 14:26:59;;;;;;;35.90;23.08;;;;;;;;;;4956984;28;20055;-82
2024/03/06 14:29:28;;;;;;;36.08;23.38;;;;;;;;;;4941064;28;20122;-83
2024/03/06 14:31:55;;;;;;;38.40;23.92;;;;;;;;;;4943568;29;20454;-83
2024/03/06 14:34:33;;;;;;;;;;;;;;;;;;;;;
2024/03/06 14:37:08;;;;;;;37.15;23.33;;;;;;;;;;4959861;28;20090;-82
2024/03/06 14:39:35;;;;;;;34.33;22.20;;;;;;;;;;4965056;28;20058;-81
2024/03/06 14:42:01;;;;;;;35.38;22.15;;;;;;;;;;4965732;28;20062;-82